Time;durP1;ratioP1;P1;durP2;ratioP2;P2;SDS_P1;SDS_P2;PMS_P1;PMS_P2;Temp;Humidity;BMP_temperature;BMP_pressure;BME280_temperature;BME280_humidity;BME280_pressure;Samples;Min_cycle;Max_cycle;Signal;HPM_P1;HPM_P2
2021/10/25 00:00:18;;;;;;;9.10;5.53;;;;;;;4.37;98.83;101534.66;5022395;28;20075;-78
2021/10/25 00:02:45;;;;;;;20.33;6.35;;;;;;;4.42;98.45;101533.72;5038398;28;20103;-78
2021/10/25 00:05:12;;;;;;;16.17;6.00;;;;;;;4.43;98.44;101540.63;4997165;28;20059;-79
2021/10/25 00:07:40;;;;;;;16.58;7.25;;;;;;;4.32;98.49;101542.56;5025046;28;20071;-81
2021/10/25 00:10:08;;;;;;;15.35;7.03;;;;;;;4.36;98.52;101533.81;5017416;28;20048;-80
2021/10/25 00:12:35;;;;;;;12.63;6.53;;;;;;;4.40;98.16;101545.91;5023141;28;20404;-79
2021/10/25 00:15:03;;;;;;;14.88;6.70;;;;;;;4.34;97.88;101545.16;5036361;28;20450;-76
2021/10/25 00:17:30;;;;;;;13.40;6.10;;;;;;;4.40;97.26;101539.81;5026594;28;20314;-79
2021/10/25 00:19:57;;;;;;;13.10;6.68;;;;;;;4.38;97.28;101536.41;5034993;28;20045;-80
2021/10/25 00:22:24;;;;;;;14.52;6.57;;;;;;;4.29;97.32;101543.50;5021217;28;20457;-80
2021/10/25 00:24:51;;;;;;;13.20;6.35;;;;;;;4.34;97.51;101540.81;5031173;28;20044;-80
2021/10/25 00:27:19;;;;;;;10.95;5.50;;;;;;;4.32;97.50;101534.75;5050205;28;20063;-78
2021/10/25 00:29:46;;;;;;;12.30;5.40;;;;;;;4.32;97.46;101538.25;5029503;28;20044;-80
2021/10/25 00:32:13;;;;;;;11.52;5.85;;;;;;;4.31;97.45;101535.63;5020320;28;20376;-79
2021/10/25 00:34:40;;;;;;;11.63;5.53;;;;;;;4.17;98.14;101538.50;5006912;28;20171;-79
2021/10/25 00:37:08;;;;;;;10.40;5.68;;;;;;;4.18;98.56;101535.00;5039935;28;20078;-82
2021/10/25 00:39:35;;;;;;;14.18;5.47;;;;;;;4.18;98.48;101539.34;5016060;28;20045;-79
2021/10/25 00:42:02;;;;;;;10.00;5.55;;;;;;;4.18;98.40;101536.75;5028657;28;20060;-80
2021/10/25 00:44:31;;;;;;;12.05;5.03;;;;;;;4.25;98.41;101530.56;5010709;28;20099;-80
2021/10/25 00:46:59;;;;;;;13.50;6.20;;;;;;;4.23;97.72;101525.38;5031626;28;20216;-79
2021/10/25 00:49:26;;;;;;;11.45;4.97;;;;;;;4.24;97.47;101518.41;5016323;28;20040;-80
2021/10/25 00:51:54;;;;;;;10.20;5.47;;;;;;;4.14;97.75;101529.88;5051919;28;20492;-78
2021/10/25 00:54:22;;;;;;;13.07;5.55;;;;;;;4.14;97.59;101520.28;5030732;28;20048;-83
2021/10/25 00:56:49;;;;;;;12.80;5.30;;;;;;;4.10;97.82;101521.28;5010011;28;20400;-79
2021/10/25 00:59:16;;;;;;;11.45;5.22;;;;;;;4.03;98.48;101519.66;5025332;28;20044;-79
2021/10/25 01:01:44;;;;;;;13.98;5.60;;;;;;;4.15;97.99;101518.59;5013774;28;20041;-78
2021/10/25 01:04:12;;;;;;;11.85;5.60;;;;;;;4.10;97.29;101520.38;5022274;28;20140;-79
2021/10/25 01:06:40;;;;;;;13.57;5.28;;;;;;;4.11;97.05;101517.78;5017581;28;20115;-80
2021/10/25 01:09:07;;;;;;;10.93;5.38;;;;;;;4.04;97.72;101509.19;5018410;28;20041;-79
2021/10/25 01:11:35;;;;;;;10.77;5.15;;;;;;;4.02;97.24;101510.97;5038635;28;20380;-80
2021/10/25 01:14:02;;;;;;;11.32;4.93;;;;;;;4.00;97.31;101504.06;5015569;28;20049;-84
2021/10/25 01:16:29;;;;;;;14.70;5.05;;;;;;;4.01;97.26;101501.44;5035158;28;20530;-79
2021/10/25 01:18:57;;;;;;;12.45;5.25;;;;;;;4.04;97.52;101503.13;5018362;28;20140;-78
2021/10/25 01:21:24;;;;;;;12.55;5.28;;;;;;;3.99;98.04;101500.59;5018469;28;20403;-79
2021/10/25 01:23:52;;;;;;;15.50;5.70;;;;;;;3.96;97.22;101491.97;5016261;28;20052;-77
2021/10/25 01:26:21;;;;;;;14.32;5.80;;;;;;;3.97;97.73;101491.97;5011000;28;20066;-79
2021/10/25 01:28:49;;;;;;;11.60;5.38;;;;;;;3.89;97.92;101485.16;5004737;28;20070;-76
2021/10/25 01:31:17;;;;;;;12.30;5.10;;;;;;;3.88;97.63;101493.88;5049210;28;20083;-79
2021/10/25 01:33:47;;;;;;;11.43;5.60;;;;;;;3.78;98.58;101488.81;5013895;28;20415;-79
2021/10/25 01:36:15;;;;;;;12.88;6.15;;;;;;;3.90;98.51;101492.94;5030592;28;20053;-79
2021/10/25 01:38:42;;;;;;;13.70;5.45;;;;;;;3.79;98.89;101492.28;5000505;28;20064;-82
2021/10/25 01:41:10;;;;;;;12.93;6.22;;;;;;;3.81;98.61;101485.28;5044387;28;20044;-81
2021/10/25 01:43:37;;;;;;;15.32;6.05;;;;;;;3.86;98.34;101487.81;5030519;28;20053;-77
2021/10/25 01:46:06;;;;;;;14.27;5.63;;;;;;;3.92;98.52;101483.38;4997879;28;20136;-81
2021/10/25 01:48:34;;;;;;;12.13;5.25;;;;;;;3.83;98.13;101486.13;5019637;28;20057;-78
2021/10/25 01:51:03;;;;;;;16.48;5.95;;;;;;;3.86;98.52;101480.84;5030145;28;20448;-78
2021/10/25 01:53:31;;;;;;;14.55;6.35;;;;;;;3.87;98.39;101482.56;5018029;28;20056;-83
2021/10/25 01:55:59;;;;;;;13.73;6.00;;;;;;;3.65;98.46;101476.00;5016483;28;20047;-81
2021/10/25 01:58:28;;;;;;;16.13;6.18;;;;;;;3.61;98.99;101475.22;5013210;28;20060;-84
2021/10/25 02:00:55;;;;;;;12.85;6.10;;;;;;;3.73;98.93;101468.94;5027910;28;20048;-79
2021/10/25 02:03:23;;;;;;;12.68;5.72;;;;;;;3.63;98.91;101470.84;5009624;28;20049;-79
2021/10/25 02:05:50;;;;;;;14.43;6.22;;;;;;;3.60;99.38;101465.66;5034634;28;20391;-80
2021/10/25 02:08:17;;;;;;;13.57;6.00;;;;;;;3.77;98.87;101470.59;5032677;28;20492;-81
2021/10/25 02:10:44;;;;;;;15.48;5.32;;;;;;;3.84;98.15;101468.75;5034091;28;20503;-78
2021/10/25 02:13:15;;;;;;;14.75;5.82;;;;;;;3.72;98.66;101459.41;5032981;28;20129;-81
2021/10/25 02:15:44;;;;;;;15.23;6.03;;;;;;;3.59;99.16;101456.16;5012886;28;20079;-80
2021/10/25 02:18:12;;;;;;;12.32;5.32;;;;;;;3.58;98.88;101454.44;5022226;28;20132;-82
2021/10/25 02:20:40;;;;;;;14.23;5.38;;;;;;;3.64;98.95;101450.88;5036549;28;20500;-80
2021/10/25 02:23:09;;;;;;;13.63;5.88;;;;;;;3.63;98.73;101446.53;5034828;28;20048;-84
2021/10/25 02:25:36;;;;;;;13.77;6.10;;;;;;;3.52;98.76;101444.13;5038067;28;20428;-80
2021/10/25 02:28:04;;;;;;;13.52;5.70;;;;;;;3.55;98.46;101447.53;5026498;28;20056;-83
2021/10/25 02:30:33;;;;;;;11.68;6.15;;;;;;;3.61;99.02;101446.59;5000355;28;20037;-78
2021/10/25 02:33:01;;;;;;;14.85;5.82;;;;;;;3.53;99.30;101445.84;5041543;28;20116;-82
2021/10/25 02:35:29;;;;;;;10.55;5.85;;;;;;;3.62;99.23;101445.69;5016331;28;20051;-80
2021/10/25 02:37:57;;;;;;;11.57;5.60;;;;;;;3.47;99.06;101441.59;5031267;28;20050;-76
2021/10/25 02:40:26;;;;;;;14.95;5.80;;;;;;;3.40;99.96;101434.78;5033978;28;20067;-83
2021/10/25 02:42:54;;;;;;;11.65;5.53;;;;;;;3.39;99.22;101427.84;5042277;28;20537;-77
2021/10/25 02:45:22;;;;;;;14.43;5.72;;;;;;;3.26;99.89;101428.94;5012083;28;20507;-77
2021/10/25 02:47:50;;;;;;;13.45;6.30;;;;;;;3.29;99.51;101426.28;5039655;28;20052;-78
2021/10/25 02:50:17;;;;;;;12.57;6.03;;;;;;;3.28;100.00;101430.63;5054314;28;20052;-81
2021/10/25 02:52:45;;;;;;;14.82;6.13;;;;;;;3.33;99.41;101424.47;5019287;28;20531;-78
2021/10/25 02:55:12;;;;;;;14.40;6.00;;;;;;;3.26;99.88;101428.94;5024763;28;20044;-79
2021/10/25 02:57:40;;;;;;;15.50;6.03;;;;;;;3.26;100.00;101419.38;5034480;28;20053;-80
2021/10/25 03:00:11;;;;;;;14.95;5.93;;;;;;;3.32;99.64;101423.63;5054879;28;20410;-79
2021/10/25 03:02:39;;;;;;;12.98;5.88;;;;;;;3.18;100.00;101423.00;5030312;28;20057;-77
2021/10/25 03:05:07;;;;;;;13.68;5.97;;;;;;;3.21;99.96;101428.16;5044520;28;20048;-79
2021/10/25 03:07:35;;;;;;;14.90;6.15;;;;;;;3.24;100.00;101426.38;5035933;28;20140;-78
2021/10/25 03:10:04;;;;;;;13.57;6.30;;;;;;;3.19;100.00;101428.16;5034015;28;20049;-79
2021/10/25 03:12:33;;;;;;;9.95;5.82;;;;;;;3.21;100.00;101423.81;5025992;28;20125;-82
2021/10/25 03:15:07;;;;;;;16.52;6.35;;;;;;;3.09;100.00;101421.38;5033195;28;20123;-80
2021/10/25 03:17:36;;;;;;;14.50;6.32;;;;;;;3.10;100.00;101419.63;5033432;28;20064;-83
2021/10/25 03:20:05;;;;;;;15.48;6.28;;;;;;;3.10;100.00;101422.25;5024349;28;20504;-84
2021/10/25 03:22:33;;;;;;;12.80;6.03;;;;;;;3.05;100.00;101424.91;5034201;28;20527;-87
2021/10/25 03:25:00;;;;;;;10.02;5.50;;;;;;;3.05;100.00;101427.50;5019548;28;20041;-82
2021/10/25 03:27:28;;;;;;;11.90;6.55;;;;;;;3.08;100.00;101421.41;5051195;28;20052;-82
2021/10/25 03:29:55;;;;;;;15.20;6.35;;;;;;;3.05;100.00;101422.31;5042392;28;20036;-82
2021/10/25 03:32:23;;;;;;;13.15;6.13;;;;;;;2.99;100.00;101419.81;5003061;28;20508;-83
2021/10/25 03:34:51;;;;;;;16.83;6.25;;;;;;;2.89;100.00;101426.91;5036778;28;20043;-83
2021/10/25 03:37:19;;;;;;;11.63;6.05;;;;;;;3.04;100.00;101413.66;5020265;28;20053;-83
2021/10/25 03:39:49;;;;;;;16.45;6.22;;;;;;;2.94;100.00;101417.28;5053754;28;20041;-84
2021/10/25 03:42:27;;;;;;;13.70;5.50;;;;;;;3.00;100.00;101416.31;5021513;28;20597;-82
2021/10/25 03:45:06;;;;;;;13.60;5.82;;;;;;;3.09;100.00;101408.38;5033618;28;20041;-79
2021/10/25 03:47:44;;;;;;;15.60;6.25;;;;;;;2.95;100.00;101411.19;5034311;28;20052;-86
2021/10/25 03:50:16;;;;;;;14.18;5.72;;;;;;;2.87;100.00;101404.38;5049880;28;20033;-86
2021/10/25 03:52:53;;;;;;;18.80;5.85;;;;;;;2.87;100.00;101412.19;5042068;28;20071;-89
2021/10/25 03:58:16;;;;;;;14.63;6.25;;;;;;;3.01;100.00;101402.44;5023022;28;20045;-85
2021/10/25 04:27:58;;;;;;;14.93;6.00;;;;;;;2.88;100.00;101398.28;5032445;28;20135;-84
2021/10/25 04:30:30;;;;;;;12.23;5.97;;;;;;;2.89;100.00;101402.63;5002143;28;20140;-82
2021/10/25 04:33:04;;;;;;;11.48;5.88;;;;;;;3.01;100.00;101405.03;5023542;28;20057;-85
2021/10/25 04:35:32;;;;;;;16.65;6.40;;;;;;;2.89;100.00;101406.09;5014478;28;20431;-90
2021/10/25 04:38:05;;;;;;;16.95;7.35;;;;;;;2.75;100.00;101395.03;5018505;28;20049;-83
2021/10/25 04:40:36;;;;;;;12.73;6.05;;;;;;;2.85;100.00;101400.97;5033912;28;20048;-80
2021/10/25 04:43:29;;;;;;;12.75;6.75;;;;;;;2.86;100.00;101395.72;5034836;28;20059;-84
2021/10/25 04:46:00;;;;;;;12.00;7.55;;;;;;;2.81;100.00;101392.34;5000424;28;20116;-76
2021/10/25 04:48:28;;;;;;;13.52;6.88;;;;;;;2.82;100.00;101385.38;5033739;28;20045;-81
2021/10/25 04:50:55;;;;;;;11.98;6.28;;;;;;;2.80;100.00;101377.63;5032130;28;20049;-84
2021/10/25 04:53:30;;;;;;;14.23;6.70;;;;;;;2.73;100.00;101371.63;5016876;28;20140;-78
2021/10/25 04:56:00;;;;;;;15.82;7.40;;;;;;;2.81;100.00;101365.47;5034426;28;20052;-84
2021/10/25 04:58:31;;;;;;;13.77;6.60;;;;;;;2.73;100.00;101369.03;5031866;28;20059;-81
2021/10/25 05:01:00;;;;;;;18.13;7.35;;;;;;;2.78;100.00;101368.97;5036557;28;20483;-80
2021/10/25 05:03:29;;;;;;;16.10;6.70;;;;;;;2.70;100.00;101368.22;5040790;28;20561;-77
2021/10/25 05:05:58;;;;;;;13.68;6.65;;;;;;;2.68;100.00;101377.78;5013611;28;20045;-79
2021/10/25 05:08:28;;;;;;;10.95;6.38;;;;;;;2.63;100.00;101372.66;5013158;28;20045;-79
2021/10/25 05:10:59;;;;;;;14.48;7.10;;;;;;;2.61;100.00;101378.75;5031369;28;20045;-82
2021/10/25 05:13:28;;;;;;;17.65;7.00;;;;;;;2.54;100.00;101372.78;5008015;28;21501;-81
2021/10/25 05:15:57;;;;;;;14.65;7.53;;;;;;;2.61;100.00;101369.25;5017288;28;20051;-85
2021/10/25 05:18:56;;;;;;;13.43;7.18;;;;;;;2.58;100.00;101371.88;5016757;28;20044;-85
2021/10/25 05:21:27;;;;;;;11.70;6.65;;;;;;;2.57;100.00;101364.06;5019950;28;20462;-83
2021/10/25 05:23:57;;;;;;;14.98;7.43;;;;;;;2.58;100.00;101368.41;5037545;28;20052;-86
2021/10/25 05:26:29;;;;;;;10.65;7.18;;;;;;;2.54;100.00;101368.44;5053247;28;20109;-86
2021/10/25 05:29:02;;;;;;;13.13;6.90;;;;;;;2.54;100.00;101362.41;5015087;28;20634;-81
2021/10/25 05:31:32;;;;;;;14.82;7.45;;;;;;;2.64;100.00;101368.31;5035844;28;20144;-90
2021/10/25 05:34:05;;;;;;;18.10;8.00;;;;;;;2.46;100.00;101364.22;5007005;28;20049;-83
2021/10/25 05:36:43;;;;;;;13.13;6.38;;;;;;;2.58;100.00;101365.81;5033130;28;20045;-88
2021/10/25 05:39:12;;;;;;;17.65;7.53;;;;;;;2.69;100.00;101367.38;4999214;28;20037;-88
2021/10/25 05:41:44;;;;;;;17.00;7.50;;;;;;;2.68;100.00;101367.41;5024818;28;20045;-80
2021/10/25 05:44:14;;;;;;;11.20;6.88;;;;;;;2.63;100.00;101364.00;5025417;28;20051;-78
2021/10/25 05:46:42;;;;;;;17.15;6.40;;;;;;;2.60;100.00;101362.28;5034042;28;20049;-79
2021/10/25 05:49:10;;;;;;;14.50;6.95;;;;;;;2.70;100.00;101368.22;5018979;28;20049;-84
2021/10/25 05:51:37;;;;;;;14.48;7.50;;;;;;;2.71;100.00;101368.22;5037923;28;20142;-81
2021/10/25 05:54:05;;;;;;;13.73;7.85;;;;;;;2.79;100.00;101358.56;5018399;28;20071;-82
2021/10/25 05:56:32;;;;;;;13.88;6.88;;;;;;;2.79;100.00;101353.38;5018163;28;20039;-81
2021/10/25 05:59:00;;;;;;;19.90;7.88;;;;;;;2.76;100.00;101356.00;5029308;28;20060;-83
2021/10/25 06:01:34;;;;;;;11.13;6.90;;;;;;;2.79;100.00;101353.38;5018271;28;20430;-81
2021/10/25 06:04:06;;;;;;;14.68;7.10;;;;;;;2.86;100.00;101348.91;5017956;28;20127;-83
2021/10/25 06:06:33;;;;;;;15.98;6.70;;;;;;;2.88;100.00;101348.88;5023712;28;20058;-80
2021/10/25 06:09:03;;;;;;;18.20;6.80;;;;;;;2.95;100.00;101351.38;5019003;28;20060;-85
2021/10/25 06:11:31;;;;;;;19.55;6.80;;;;;;;3.00;100.00;101354.75;5033648;28;20045;-80
2021/10/25 06:14:03;;;;;;;14.98;6.38;;;;;;;2.97;100.00;101356.53;5017402;28;20060;-84
2021/10/25 06:16:41;;;;;;;16.67;6.72;;;;;;;3.00;100.00;101359.09;5019883;28;20055;-83
2021/10/25 06:19:11;;;;;;;17.10;6.65;;;;;;;3.04;100.00;101363.38;5029882;28;20068;-82
2021/10/25 06:21:39;;;;;;;18.08;6.57;;;;;;;3.11;100.00;101353.72;5020668;28;20043;-80
2021/10/25 06:24:08;;;;;;;16.77;7.22;;;;;;;3.15;100.00;101363.19;5017402;28;20416;-83
2021/10/25 06:26:35;;;;;;;16.05;8.35;;;;;;;3.18;100.00;101360.53;5022593;28;20367;-80
2021/10/25 06:29:03;;;;;;;15.20;6.22;;;;;;;3.16;99.99;101365.78;5015870;28;20143;-82
2021/10/25 06:31:31;;;;;;;12.48;7.20;;;;;;;3.11;100.00;101358.91;5014947;28;20472;-82
2021/10/25 06:34:03;;;;;;;14.55;7.18;;;;;;;3.16;100.00;101359.72;5048279;28;20476;-82
2021/10/25 06:36:33;;;;;;;15.90;8.77;;;;;;;3.32;100.00;101355.97;5013864;28;20044;-81
2021/10/25 06:39:15;;;;;;;13.68;7.15;;;;;;;3.34;99.37;101355.94;5044925;28;20057;-83
2021/10/25 06:41:42;;;;;;;24.80;8.70;;;;;;;3.46;99.86;101364.38;5016727;28;20048;-81
2021/10/25 06:44:09;;;;;;;16.40;8.00;;;;;;;3.53;98.37;101360.78;5027611;28;20119;-85
2021/10/25 06:46:42;;;;;;;19.33;8.20;;;;;;;3.73;98.39;101359.56;5016194;28;20052;-82
2021/10/25 06:49:09;;;;;;;20.05;6.97;;;;;;;3.84;97.14;101361.97;5017360;28;20048;-82
2021/10/25 06:51:37;;;;;;;33.05;7.63;;;;;;;4.00;96.11;101359.00;5003293;28;20156;-80
2021/10/25 06:54:05;;;;;;;17.23;7.22;;;;;;;3.98;95.78;101360.81;5033716;28;20095;-84
2021/10/25 06:56:33;;;;;;;17.15;7.20;;;;;;;4.04;95.28;101367.63;5003057;28;20484;-82
2021/10/25 06:59:00;;;;;;;15.90;7.43;;;;;;;4.03;94.02;101376.34;5013935;28;20055;-84
2021/10/25 07:01:27;;;;;;;15.13;6.82;;;;;;;4.02;93.96;101367.69;5035294;28;20048;-81
2021/10/25 07:03:55;;;;;;;20.15;7.25;;;;;;;4.16;93.14;101369.16;5016341;28;20049;-85
2021/10/25 07:06:23;;;;;;;12.27;6.82;;;;;;;4.42;92.03;101374.69;5014536;28;20089;-82
2021/10/25 07:08:52;;;;;;;15.15;6.55;;;;;;;4.61;90.62;101371.66;5002984;28;20041;-80
2021/10/25 07:11:20;;;;;;;11.75;6.00;;;;;;;5.28;87.34;101367.47;5003507;28;20048;-82
2021/10/25 07:13:49;;;;;;;16.10;6.97;;;;;;;6.84;81.13;101369.16;5016517;28;20088;-81
2021/10/25 07:16:27;;;;;;;18.48;5.75;;;;;;;7.28;76.42;101360.75;5048911;28;20093;-82
2021/10/25 07:19:11;;;;;;;16.73;6.13;;;;;;;8.11;72.90;101353.47;5034313;28;20204;-81
2021/10/25 07:27:37;;;;;;;17.13;6.55;;;;;;;8.93;66.60;101357.31;5019327;28;20143;-82
2021/10/25 08:00:53;;;;;;;15.52;5.20;;;;;;;16.37;41.19;101329.72;5018036;28;19921;-82
2021/10/25 08:03:49;;;;;;;9.77;5.20;;;;;;;17.25;40.32;101333.94;5018829;28;20424;-81
2021/10/25 08:11:34;;;;;;;8.20;4.38;;;;;;;16.51;39.83;101327.88;5031449;28;20051;-83
2021/10/25 08:14:15;;;;;;;11.40;4.65;;;;;;;15.16;43.60;101329.28;5033800;28;20085;-82
2021/10/25 08:16:44;;;;;;;9.60;4.80;;;;;;;15.16;43.37;101327.47;5027103;28;20051;-83
2021/10/25 08:19:25;;;;;;;15.02;4.97;;;;;;;14.90;44.57;101325.69;5021061;28;20049;-83
2021/10/25 08:21:59;;;;;;;10.95;5.47;;;;;;;14.15;45.67;101327.88;5032858;28;20506;-81
2021/10/25 08:24:30;;;;;;;11.70;4.45;;;;;;;14.93;44.39;101328.16;5051538;28;20132;-81
2021/10/25 08:27:01;;;;;;;11.07;4.97;;;;;;;14.34;45.24;101330.19;5029351;28;20053;-83
2021/10/25 08:29:35;;;;;;;;;;;;;;;14.52;44.90;101318.47;4999530;28;20499;-86
2021/10/25 08:40:31;;;;;;;8.43;3.58;;;;;;;16.46;42.28;101301.63;5049293;28;20040;-86
2021/10/25 08:42:58;;;;;;;9.90;4.53;;;;;;;14.81;44.18;101305.94;5005616;28;20044;-84
2021/10/25 08:45:31;;;;;;;13.25;4.70;;;;;;;14.37;46.17;101316.78;4997496;28;20041;-84
2021/10/25 08:47:59;;;;;;;12.68;4.63;;;;;;;13.18;48.14;101312.50;5020268;28;20055;-83
2021/10/25 08:50:35;;;;;;;10.57;5.05;;;;;;;11.88;52.53;101311.06;5037007;28;20052;-84
2021/10/25 08:53:05;;;;;;;12.50;4.75;;;;;;;13.07;50.36;101320.25;5009527;28;20041;-87
2021/10/25 08:55:32;;;;;;;12.73;4.53;;;;;;;14.56;47.13;101314.66;5000623;28;20068;-82
2021/10/25 08:57:59;;;;;;;14.88;5.32;;;;;;;15.44;44.71;101315.88;5023803;28;20045;-86
2021/10/25 09:00:42;;;;;;;11.73;4.13;;;;;;;15.45;44.74;101327.34;5002278;28;20059;-87
2021/10/25 09:03:10;;;;;;;13.20;5.18;;;;;;;15.83;44.00;101321.22;5035425;28;20033;-84
2021/10/25 09:05:38;;;;;;;11.73;4.55;;;;;;;15.36;44.33;101330.63;5026201;28;20179;-85
2021/10/25 09:08:10;;;;;;;11.20;5.60;;;;;;;14.36;47.35;101328.28;5001636;28;20531;-84
2021/10/25 09:10:43;;;;;;;13.38;4.47;;;;;;;12.56;51.64;101319.66;4999971;28;20040;-84
2021/10/25 09:13:18;;;;;;;9.15;4.65;;;;;;;12.46;52.26;101307.88;5019964;28;20110;-86
2021/10/25 09:15:50;;;;;;;8.48;4.18;;;;;;;12.27;53.32;101307.19;5021966;28;20056;-83
2021/10/25 09:18:20;;;;;;;12.23;4.85;;;;;;;11.89;54.64;101312.78;5003440;28;20048;-86
2021/10/25 09:20:50;;;;;;;11.25;4.38;;;;;;;11.61;55.80;101306.28;4995364;28;20037;-84
2021/10/25 09:23:20;;;;;;;8.70;4.60;;;;;;;11.43;57.00;101306.38;5006737;28;20041;-88
2021/10/25 09:26:00;;;;;;;8.23;3.85;;;;;;;11.04;58.13;101305.69;5017962;28;20079;-84
2021/10/25 09:28:34;;;;;;;11.35;4.55;;;;;;;10.84;58.77;101304.03;5021323;28;20518;-81
2021/10/25 09:31:34;;;;;;;12.25;4.85;;;;;;;10.42;60.78;101299.06;5023906;28;20543;-83
2021/10/25 09:34:06;;;;;;;12.23;4.85;;;;;;;10.52;61.08;101302.97;5003386;28;20207;-85
2021/10/25 09:36:45;;;;;;;11.38;4.68;;;;;;;10.51;61.01;101300.41;5026940;28;20090;-88
2021/10/25 09:39:21;;;;;;;14.30;5.22;;;;;;;10.72;60.95;101298.53;5023755;28;20076;-88
2021/10/25 09:50:06;;;;;;;9.38;4.30;;;;;;;10.63;61.81;101294.56;5017280;28;20045;-87
2021/10/25 09:52:41;;;;;;;13.57;4.57;;;;;;;10.41;62.22;101300.00;4997666;28;20076;-87
2021/10/25 09:55:10;;;;;;;9.48;4.15;;;;;;;10.22;62.99;101301.75;5027439;28;20075;-86
2021/10/25 10:00:16;;;;;;;11.75;5.05;;;;;;;10.31;62.40;101296.97;5031822;28;20048;-86
2021/10/25 10:02:44;;;;;;;15.70;5.30;;;;;;;10.35;62.39;101300.28;5001924;28;20057;-88
2021/10/25 10:05:35;;;;;;;12.00;4.18;;;;;;;10.41;62.78;101296.53;5010600;28;20465;-88
2021/10/25 10:08:04;;;;;;;10.15;4.47;;;;;;;10.33;63.14;101304.78;5027905;28;20037;-89
2021/10/25 10:10:33;;;;;;;9.30;4.70;;;;;;;10.31;63.05;101296.97;5033840;28;20430;-89
2021/10/25 10:13:03;;;;;;;10.77;4.85;;;;;;;10.54;62.57;101300.28;5006067;28;20075;-89
2021/10/25 10:15:31;;;;;;;8.05;4.28;;;;;;;10.52;63.17;101296.84;5010986;28;20029;-87
2021/10/25 10:18:04;;;;;;;10.32;4.70;;;;;;;10.49;62.91;101295.25;5031539;28;20068;-86
2021/10/25 10:20:35;;;;;;;9.13;4.78;;;;;;;10.60;62.44;101287.66;5020303;28;20136;-85
2021/10/25 10:23:06;;;;;;;10.07;4.97;;;;;;;10.63;62.42;101291.94;5058521;28;20113;-85
2021/10/25 10:25:40;;;;;;;11.27;4.60;;;;;;;10.70;62.24;101288.06;5032087;28;20040;-80
2021/10/25 10:28:12;;;;;;;8.13;4.50;;;;;;;10.76;62.18;101281.63;5068766;28;20180;-91
2021/10/25 10:31:02;;;;;;;10.57;4.38;;;;;;;10.60;62.30;101284.19;5035537;28;20045;-85
2021/10/25 10:33:32;;;;;;;12.07;5.05;;;;;;;10.56;62.61;101288.72;5028147;28;20043;-86
2021/10/25 10:36:21;;;;;;;9.68;4.60;;;;;;;10.57;63.04;101285.16;5035516;28;20033;-83
2021/10/25 10:39:18;;;;;;;17.83;5.35;;;;;;;10.42;63.58;101287.69;5004024;28;20048;-81
2021/10/25 10:41:51;;;;;;;13.52;5.00;;;;;;;10.22;64.58;101289.47;5008125;28;20557;-83
2021/10/25 10:44:26;;;;;;;8.70;5.05;;;;;;;10.34;64.26;101288.06;5036567;28;20071;-81
2021/10/25 10:47:01;;;;;;;14.70;4.97;;;;;;;10.49;64.17;101282.06;5022242;28;20564;-86
2021/10/25 10:49:42;;;;;;;10.73;5.32;;;;;;;10.56;64.41;101280.84;5037454;28;20064;-83
2021/10/25 10:54:58;;;;;;;9.88;4.63;;;;;;;10.70;63.37;101288.06;5032470;28;20048;-80
2021/10/25 10:58:09;;;;;;;8.63;4.47;;;;;;;10.60;63.74;101284.19;5001442;28;20084;-83
2021/10/25 11:00:35;;;;;;;12.60;4.65;;;;;;;10.57;63.94;101284.31;5020553;28;20037;-83
2021/10/25 11:03:13;;;;;;;11.38;5.85;;;;;;;10.70;63.99;101281.94;5018357;28;20071;-83
2021/10/25 11:05:51;;;;;;;10.13;4.35;;;;;;;10.75;63.64;101277.31;5040290;28;20033;-83
2021/10/25 11:08:24;;;;;;;10.75;4.80;;;;;;;10.90;63.03;101281.84;5034040;28;20064;-82
2021/10/25 11:11:19;;;;;;;7.65;4.65;;;;;;;10.90;62.90;101276.56;5016931;28;20045;-82
2021/10/25 11:14:04;;;;;;;16.20;5.07;;;;;;;10.80;63.05;101277.94;5019826;28;20161;-82
2021/10/25 11:16:38;;;;;;;11.93;5.40;;;;;;;10.85;63.04;101289.09;5026939;28;20057;-82
2021/10/25 11:19:06;;;;;;;11.55;5.38;;;;;;;10.54;64.55;101281.84;5029671;28;20073;-82
2021/10/25 11:21:47;;;;;;;14.38;5.32;;;;;;;10.75;63.81;101287.84;5037782;28;20045;-84
2021/10/25 11:24:16;;;;;;;15.50;4.80;;;;;;;10.83;63.62;101285.69;4998736;28;20049;-84
2021/10/25 11:26:50;;;;;;;10.13;4.88;;;;;;;11.00;63.67;101276.94;5020482;28;20064;-81
2021/10/25 11:29:44;;;;;;;9.63;5.32;;;;;;;11.08;62.61;101278.28;5030841;28;20060;-84
2021/10/25 11:32:12;;;;;;;13.27;5.93;;;;;;;11.08;63.38;101280.91;4997502;28;20052;-82
2021/10/25 11:34:46;;;;;;;9.73;5.53;;;;;;;11.22;62.91;101282.84;5005788;28;20048;-82
2021/10/25 11:37:20;;;;;;;8.98;5.25;;;;;;;11.34;62.57;101271.66;5025724;28;20040;-82
2021/10/25 11:39:55;;;;;;;11.52;4.53;;;;;;;11.65;60.96;101262.97;5037454;28;20048;-81
2021/10/25 11:42:30;;;;;;;11.45;5.40;;;;;;;11.84;60.29;101267.31;5026996;28;20083;-83
2021/10/25 11:45:19;;;;;;;7.75;4.88;;;;;;;11.54;60.93;101257.44;5028153;28;20054;-88
2021/10/25 11:47:48;;;;;;;11.55;5.38;;;;;;;11.77;61.17;101248.28;5012887;28;20223;-82
2021/10/25 11:50:18;;;;;;;8.25;4.38;;;;;;;11.69;60.90;101250.50;5000136;28;20096;-82
2021/10/25 11:53:01;;;;;;;9.63;5.18;;;;;;;11.88;60.67;101258.28;5000193;28;20045;-83
2021/10/25 11:55:37;;;;;;;11.35;5.35;;;;;;;11.81;60.71;101247.19;5029520;28;20107;-81
2021/10/25 11:58:15;;;;;;;13.18;5.25;;;;;;;11.77;61.20;101252.72;5017535;28;20053;-84
2021/10/25 12:00:47;;;;;;;13.20;5.13;;;;;;;11.58;61.66;101245.81;5016746;28;20180;-82
2021/10/25 12:03:20;;;;;;;9.80;5.65;;;;;;;11.87;61.44;101241.59;5015555;28;20144;-84
2021/10/25 12:05:49;;;;;;;10.38;5.32;;;;;;;11.88;60.84;101234.53;5017748;28;20052;-81
2021/10/25 12:08:16;;;;;;;11.93;5.10;;;;;;;11.97;60.71;101239.31;4998438;28;20059;-85
2021/10/25 12:10:46;;;;;;;10.13;5.78;;;;;;;12.27;60.17;101238.56;5033535;28;20053;-81
2021/10/25 12:13:13;;;;;;;13.15;4.97;;;;;;;12.19;60.44;101236.34;5018248;28;20049;-85
2021/10/25 12:15:51;;;;;;;10.98;5.65;;;;;;;12.01;60.57;101251.41;5013639;28;20041;-83
2021/10/25 12:18:20;;;;;;;8.10;5.00;;;;;;;12.14;61.05;101241.88;5037778;28;20364;-83
2021/10/25 12:20:48;;;;;;;11.32;5.47;;;;;;;11.88;62.30;101243.31;5021644;28;20049;-83
2021/10/25 12:23:24;;;;;;;14.43;5.63;;;;;;;11.57;62.25;101232.66;5036209;28;20044;-85
2021/10/25 12:25:57;;;;;;;10.23;5.28;;;;;;;11.68;61.99;101240.03;5000825;28;20614;-82
2021/10/25 12:28:27;;;;;;;18.42;6.07;;;;;;;11.61;62.30;101237.69;5033775;28;20724;-80
2021/10/25 12:31:15;;;;;;;13.00;5.47;;;;;;;11.80;62.03;101236.75;5010656;28;20059;-82
2021/10/25 12:33:45;;;;;;;15.23;7.10;;;;;;;11.74;61.65;101240.53;5046566;28;20040;-83
2021/10/25 12:36:20;;;;;;;13.30;5.70;;;;;;;11.74;61.85;101237.06;5003195;28;20128;-85
2021/10/25 12:38:52;;;;;;;13.25;6.00;;;;;;;11.75;62.17;101231.72;5015687;28;20073;-82
2021/10/25 12:41:20;;;;;;;16.25;7.75;;;;;;;11.34;63.78;101232.09;5030816;28;20040;-82
2021/10/25 12:43:54;;;;;;;11.98;5.90;;;;;;;11.32;64.54;101238.41;5019753;28;20049;-81
2021/10/25 12:46:22;;;;;;;11.75;5.70;;;;;;;11.70;63.08;101232.88;5032793;28;20049;-84
2021/10/25 12:48:56;;;;;;;11.02;5.80;;;;;;;11.54;63.46;101223.16;5032174;28;20107;-85
2021/10/25 12:51:40;;;;;;;8.40;5.15;;;;;;;11.68;63.61;101234.75;5020402;28;20490;-82
2021/10/25 12:54:13;;;;;;;14.85;5.40;;;;;;;11.76;62.78;101235.19;5011169;28;20057;-86
2021/10/25 12:56:41;;;;;;;13.35;6.38;;;;;;;11.86;62.45;101239.06;5015036;28;20045;-81
2021/10/25 12:59:11;;;;;;;14.18;6.45;;;;;;;12.06;62.24;101228.25;5031121;28;20052;-86
2021/10/25 13:01:57;;;;;;;12.82;5.88;;;;;;;11.79;63.33;101219.19;5017318;28;20032;-81
2021/10/25 13:04:26;;;;;;;22.73;7.03;;;;;;;11.81;63.51;101204.13;5028973;28;20171;-83
2021/10/25 13:06:55;;;;;;;9.85;5.05;;;;;;;11.84;62.72;101194.31;5038644;28;20128;-83
2021/10/25 13:09:22;;;;;;;11.98;5.13;;;;;;;11.80;62.68;101205.09;5026828;28;21840;-80
2021/10/25 13:11:51;;;;;;;12.50;5.82;;;;;;;11.56;63.06;101200.19;5047111;28;20146;-80
2021/10/25 13:14:19;;;;;;;11.85;5.47;;;;;;;11.33;64.86;101197.94;5014730;28;20048;-79